Flight Track Log - Related Links

Times and Time Zones

All times are in EST time to prevent confusion due to time zone crossing. See the QXE2593 flight status page for this flight to view local times or setup timezone preferences in your user account.

Time Position Orientation Groundspeed Altitude Reporting Facility
EST Latitude Longitude Course Direction KTS MPH feet Rate Location/Type
Sun 11:41:00 PM 45.3975 -121.9222 130° Southeast  Level Estimated
Sun 11:42:00 PM 45.3653 -121.8102 125° Southeast  Level Estimated
Sun 11:43:00 PM 45.3329 -121.6983 130° Southeast  Level Estimated
Sun 11:44:00 PM 45.3004 -121.5866 125° Southeast  Level Estimated
Sun 11:45:00 PM 45.2679 -121.4749 109° East  Level Estimated
Sun 11:46:00 PM 45.2352 -121.3634 108° East  Level Estimated
Sun 11:47:00 PM 45.1531 -121.3318 165° South  Level FlightAware Approximate
Sun 11:48:00 PM 45.0711 -121.3003 165° South  Level FlightAware Approximate
Sun 11:49:00 PM 45.0406 -121.1867 107° East  Level Estimated
Sun 11:50:00 PM 45.0104 -121.0731 111° Southeast  Level FlightAware Approximate
Sun 11:51:00 PM 44.9800 -120.9596 111° Southeast  Level FlightAware Approximate
Sun 11:52:00 PM 44.9496 -120.8462 111° Southeast  Level FlightAware Approximate
Sun 11:53:00 PM 44.9190 -120.7329 111° Southeast  Level FlightAware Approximate
Sun 11:54:00 PM 44.8883 -120.6198 111° Southeast  Level FlightAware Approximate
Sun 11:55:00 PM 44.8575 -120.5068 111° Southeast  Level FlightAware Approximate
Sun 11:56:00 PM 44.8265 -120.3939 111° Southeast  Level FlightAware Approximate
Sun 11:57:00 PM 44.7925 -120.2700 111° Southeast  Level FlightAware Approximate
Sun 11:58:00 PM 44.7582 -120.1463 111° Southeast  Level FlightAware Approximate
Sun 11:59:00 PM 44.7294 -120.0426 111° Southeast  Level FlightAware Approximate
Mon 12:00:00 AM 44.7005 -119.9391 111° Southeast  Level FlightAware Approximate
Mon 12:01:00 AM 44.6715 -119.8356 111° Southeast  Level FlightAware Approximate
Mon 12:02:00 AM 44.6424 -119.7323 112° Southeast  Level FlightAware Approximate
Mon 12:03:00 AM 44.6130 -119.6276 112° Southeast  Level FlightAware Approximate
Mon 12:04:00 AM 44.5839 -119.5243 112° Southeast  Level FlightAware Approximate
Mon 12:05:00 AM 44.5547 -119.4212 112° Southeast  Level FlightAware Approximate
Mon 12:06:00 AM 44.5254 -119.3181 112° Southeast  Level FlightAware Approximate
Mon 12:07:00 AM 44.4961 -119.2152 112° Southeast  Level FlightAware Approximate
Mon 12:08:00 AM 44.4666 -119.1123 112° Southeast  Level FlightAware Approximate
Mon 12:09:00 AM 44.4370 -119.0096 112° Southeast  Level FlightAware Approximate
Mon 12:10:00 AM 44.4074 -118.9070 112° Southeast  Level FlightAware Approximate
Mon 12:11:00 AM 44.3777 -118.8045 112° Southeast  Level FlightAware Approximate
Mon 12:12:00 AM 44.3474 -118.7023 113° Southeast  Level FlightAware Approximate
Mon 12:13:00 AM 44.3169 -118.6003 113° Southeast  Level FlightAware Approximate
Mon 12:14:00 AM 44.2830 -118.4880 113° Southeast  Level FlightAware Approximate
Mon 12:15:00 AM 44.2491 -118.3757 113° Southeast  Level FlightAware Approximate
Mon 12:16:00 AM 44.2150 -118.2636 113° Southeast  Level FlightAware Approximate
Mon 12:17:00 AM 44.1809 -118.1516 113° Southeast  Level FlightAware Approximate
Mon 12:18:00 AM 44.1447 -118.0342 113° Southeast  Level FlightAware Approximate
Mon 12:19:00 AM 44.1077 -117.9127 113° Southeast  Level FlightAware Approximate
Mon 12:20:00 AM 44.0705 -117.7914 113° Southeast  Level FlightAware Approximate
Mon 12:21:00 AM 44.0332 -117.6702 113° Southeast  Level FlightAware Approximate
Mon 12:22:00 AM 43.9953 -117.5495 114° Southeast  Level FlightAware Approximate
Mon 12:23:00 AM 43.9569 -117.4292 114° Southeast  Level FlightAware Approximate
Mon 12:24:00 AM 43.9184 -117.3090 114° Southeast  Level FlightAware Approximate
Mon 12:25:00 AM 43.8797 -117.1890 115° Southeast  Level FlightAware Approximate
Mon 12:26:00 AM 43.8373 -117.0715 117° Southeast  Level FlightAware Approximate
Mon 12:27:00 AM 43.7957 -116.9536 115° Southeast  Level FlightAware Approximate
Mon 12:28:00 AM 43.7583 -116.8332 109° East  Level FlightAware Approximate
Mon 12:29:00 AM 43.7225 -116.7119 113° Southeast  Level FlightAware Approximate
Mon 12:30:00 AM 43.6850 -116.5916 113° Southeast  Level FlightAware Approximate
Mon 12:31:00 AM 43.6431 -116.4743 119° Southeast  Level FlightAware Approximate
Mon 12:32:00 AM 43.5976 -116.3595 115° Southeast  Level FlightAware Approximate
Mon 12:33:00 AM 43.5580 -116.2407 115° Southeast  Level FlightAware Approximate
Mon 12:34:00 AM 43.5500 -116.2167 270° West  Level FlightAware Approximate
Mon 12:35:00 AM 43.5644 -116.2229 270° West  Level Estimated
Mon 12:36:00 AM 43.5644 -116.2229 270° West  Level Estimated
Mon 12:37:00 AM 43.5644 -116.2229 270° West  Level Estimated
Mon 12:38:00 AM 43.5644 -116.2229 270° West  Level Estimated
Mon 12:39:00 AM 43.5644 -116.2229 270° West  Level Estimated
Mon 12:40:00 AM 43.5644 -116.2229 270° West  Level Estimated
Mon 12:41:00 AM 43.5644 -116.2229 270° West  Level Estimated
Mon 12:42:00 AM 43.5644 -116.2229 270° West  Level Estimated
Mon 12:43:00 AM 43.5644 -116.2229 270° West  Level Estimated
Mon 12:44:00 AM 43.5644 -116.2229 270° West  Level Estimated

Login

Don't have an account? Register now (free) for customized features, flight alerts, and more!